Time;durP1;ratioP1;P1;durP2;ratioP2;P2;SDS_P1;SDS_P2;PMS_P1;PMS_P2;Temp;Humidity;BMP_temperature;BMP_pressure;BME280_temperature;BME280_humidity;BME280_pressure;Samples;Min_cycle;Max_cycle;Signal;HPM_P1;HPM_P2
2023/10/04 00:00:19;;;;;;;3.17;2.00;;;11.00;99.90;;;;;;5019753;28;20497;-58
2023/10/04 00:02:48;;;;;;;4.47;2.37;;;11.00;99.90;;;;;;5024415;28;20956;-57
2023/10/04 00:05:15;;;;;;;3.80;2.40;;;10.90;99.90;;;;;;5020503;28;20427;-57
2023/10/04 00:07:49;;;;;;;4.60;2.10;;;10.90;99.90;;;;;;5028507;28;20414;-58
2023/10/04 00:10:16;;;;;;;3.43;2.20;;;10.90;99.90;;;;;;5026031;28;20957;-59
2023/10/04 00:12:43;;;;;;;2.47;2.10;;;10.90;99.90;;;;;;5022651;28;20437;-58
2023/10/04 00:15:09;;;;;;;6.17;2.13;;;10.80;99.90;;;;;;5024766;28;20430;-58
2023/10/04 00:17:37;;;;;;;3.67;2.07;;;10.80;99.90;;;;;;5028076;28;20754;-58
2023/10/04 00:20:08;;;;;;;4.80;2.83;;;10.90;99.90;;;;;;5017539;28;21160;-59
2023/10/04 00:22:34;;;;;;;4.27;2.43;;;10.90;99.90;;;;;;5024748;28;20472;-57
2023/10/04 00:25:03;;;;;;;14.23;3.33;;;10.90;99.90;;;;;;5026043;28;20800;-57
2023/10/04 00:27:29;;;;;;;7.63;3.40;;;10.90;99.90;;;;;;5027760;28;20422;-58
2023/10/04 00:29:55;;;;;;;5.80;3.43;;;10.90;99.90;;;;;;5028999;28;20532;-59
2023/10/04 00:32:21;;;;;;;7.43;3.43;;;10.90;99.90;;;;;;5026963;28;20526;-59
2023/10/04 00:34:46;;;;;;;5.63;3.73;;;10.90;99.90;;;;;;5027307;28;20183;-59
2023/10/04 00:37:12;;;;;;;11.07;4.17;;;10.90;99.90;;;;;;5021966;28;20204;-58
2023/10/04 00:39:38;;;;;;;9.53;4.23;;;10.90;99.90;;;;;;5033216;28;20222;-59
2023/10/04 00:42:04;;;;;;;11.80;4.80;;;10.90;99.90;;;;;;5026687;28;20204;-59
2023/10/04 00:44:34;;;;;;;10.10;4.77;;;10.90;99.90;;;;;;5023638;28;20843;-58
2023/10/04 00:47:00;;;;;;;12.10;5.30;;;10.80;99.90;;;;;;5031959;28;20172;-58
2023/10/04 00:49:26;;;;;;;13.33;4.87;;;10.90;99.90;;;;;;5032185;28;20422;-59
2023/10/04 00:51:52;;;;;;;12.07;4.50;;;10.90;99.90;;;;;;5025728;28;20183;-59
2023/10/04 00:54:18;;;;;;;19.50;5.07;;;10.90;99.90;;;;;;5030110;28;20406;-59
2023/10/04 00:56:46;;;;;;;15.27;5.20;;;10.90;99.90;;;;;;5032425;28;20446;-59
2023/10/04 00:59:12;;;;;;;12.40;5.87;;;10.90;99.90;;;;;;5031910;28;20278;-59
2023/10/04 01:01:40;;;;;;;12.13;4.77;;;11.00;99.90;;;;;;5029109;28;21002;-59
2023/10/04 01:04:07;;;;;;;11.83;4.90;;;11.00;99.90;;;;;;5026080;28;20510;-58
2023/10/04 01:06:35;;;;;;;21.83;5.47;;;10.90;99.90;;;;;;5027329;28;20521;-59
2023/10/04 01:09:01;;;;;;;18.53;4.80;;;10.90;99.90;;;;;;5029946;28;20430;-59
2023/10/04 01:11:32;;;;;;;7.53;3.00;;;10.90;99.90;;;;;;5026605;28;20920;-58
2023/10/04 01:14:09;;;;;;;10.60;3.30;;;10.90;99.90;;;;;;5029569;28;20179;-57
2023/10/04 01:16:40;;;;;;;5.50;3.17;;;10.80;99.90;;;;;;5029835;28;20469;-58
2023/10/04 01:19:07;;;;;;;7.40;3.47;;;10.80;99.90;;;;;;5027758;28;20453;-58
2023/10/04 01:21:33;;;;;;;11.10;3.63;;;10.80;99.90;;;;;;5024952;28;20526;-59
2023/10/04 01:23:59;;;;;;;5.30;2.90;;;10.80;99.90;;;;;;5035125;28;20921;-59
2023/10/04 01:26:27;;;;;;;6.03;2.90;;;10.80;99.90;;;;;;5029640;28;20430;-59
2023/10/04 01:28:53;;;;;;;9.00;2.47;;;10.80;99.90;;;;;;5024318;28;20195;-59
2023/10/04 01:31:21;;;;;;;5.40;3.63;;;10.90;99.90;;;;;;5030226;28;20430;-60
2023/10/04 01:33:47;;;;;;;7.10;3.83;;;10.90;99.90;;;;;;5031949;28;20548;-58
2023/10/04 01:36:13;;;;;;;16.27;3.87;;;10.90;99.90;;;;;;5025810;28;20218;-59
2023/10/04 01:38:39;;;;;;;6.30;3.67;;;10.80;99.90;;;;;;5031301;28;20423;-59
2023/10/04 01:41:04;;;;;;;8.10;4.40;;;10.90;99.90;;;;;;5031159;28;20233;-59
2023/10/04 01:43:30;;;;;;;7.10;4.17;;;10.80;99.90;;;;;;5028551;28;20180;-59
2023/10/04 01:45:59;;;;;;;8.97;3.90;;;10.80;99.90;;;;;;5023093;28;20184;-58
2023/10/04 01:48:30;;;;;;;5.40;3.40;;;10.80;99.90;;;;;;5031213;28;20194;-58
2023/10/04 01:50:56;;;;;;;8.83;3.70;;;10.80;99.90;;;;;;5024718;28;20438;-59
2023/10/04 01:53:26;;;;;;;6.73;3.70;;;10.80;99.90;;;;;;5024012;28;20434;-58
2023/10/04 01:55:54;;;;;;;13.07;3.57;;;10.80;99.90;;;;;;5022394;28;20208;-59
2023/10/04 01:58:23;;;;;;;15.03;3.43;;;10.70;99.90;;;;;;5030683;28;20466;-59
2023/10/04 02:00:49;;;;;;;12.40;3.53;;;10.70;99.90;;;;;;5027871;28;21105;-59
2023/10/04 02:03:16;;;;;;;5.30;3.53;;;10.70;99.90;;;;;;5018641;28;20824;-59
2023/10/04 02:05:42;;;;;;;6.43;4.30;;;10.70;99.90;;;;;;5021448;28;20431;-58
2023/10/04 02:08:15;;;;;;;5.57;3.70;;;10.60;99.90;;;;;;5030482;28;20435;-61
2023/10/04 02:10:44;;;;;;;8.63;3.80;;;10.60;99.90;;;;;;5019570;28;20180;-59
2023/10/04 02:13:15;;;;;;;9.33;3.90;;;10.70;99.90;;;;;;5027242;28;20411;-58
2023/10/04 02:15:42;;;;;;;11.73;3.33;;;10.60;99.90;;;;;;5018355;28;20459;-58
2023/10/04 02:18:08;;;;;;;6.57;3.73;;;10.60;99.90;;;;;;5023332;28;20451;-58
2023/10/04 02:20:34;;;;;;;5.30;3.60;;;10.60;99.90;;;;;;5026589;28;20426;-58
2023/10/04 02:23:03;;;;;;;10.03;3.10;;;10.60;99.90;;;;;;5027033;28;20425;-59
2023/10/04 02:25:28;;;;;;;14.23;4.10;;;10.60;99.90;;;;;;5027028;28;20821;-58
2023/10/04 02:27:59;;;;;;;9.00;4.13;;;10.60;99.90;;;;;;5029274;28;20500;-59
2023/10/04 02:30:26;;;;;;;7.40;4.03;;;10.50;99.90;;;;;;5024267;28;20172;-58
2023/10/04 02:32:53;;;;;;;65.70;5.57;;;10.50;99.90;;;;;;5029932;28;20412;-59
2023/10/04 02:37:54;;;;;;;8.63;5.10;;;10.40;99.90;;;;;;5023562;28;20442;-58
2023/10/04 02:40:22;;;;;;;6.77;4.63;;;10.40;99.90;;;;;;5027337;28;20430;-59
2023/10/04 02:42:48;;;;;;;14.87;5.50;;;10.40;99.90;;;;;;5029998;28;20477;-59
2023/10/04 02:45:21;;;;;;;33.37;4.83;;;10.40;99.90;;;;;;5028638;28;20438;-58
2023/10/04 02:47:49;;;;;;;7.17;5.13;;;10.40;99.90;;;;;;5029740;28;20442;-58
2023/10/04 02:50:19;;;;;;;69.93;8.80;;;10.30;99.90;;;;;;5027955;28;20476;-58
2023/10/04 02:52:50;;;;;;;8.30;5.27;;;10.30;99.90;;;;;;5027300;28;20419;-58
2023/10/04 02:55:17;;;;;;;6.33;4.80;;;10.30;99.90;;;;;;5027043;28;20494;-58
2023/10/04 02:57:45;;;;;;;5.90;4.83;;;10.30;99.90;;;;;;5028520;28;20495;-59
2023/10/04 03:00:17;;;;;;;11.60;4.40;;;10.30;99.90;;;;;;5028474;28;20414;-59
2023/10/04 03:02:44;;;;;;;20.43;5.33;;;10.20;99.90;;;;;;5023548;28;20426;-58
2023/10/04 03:05:12;;;;;;;12.07;4.77;;;10.20;99.90;;;;;;5027791;28;20437;-57
2023/10/04 03:07:38;;;;;;;40.10;6.10;;;10.20;99.90;;;;;;5029216;28;20901;-56
2023/10/04 03:10:04;;;;;;;29.93;5.70;;;10.20;99.90;;;;;;5024514;28;20439;-58
2023/10/04 03:12:30;;;;;;;50.17;7.17;;;10.20;99.90;;;;;;5029701;28;20407;-58
2023/10/04 03:14:56;;;;;;;24.17;5.23;;;10.10;99.90;;;;;;5019201;28;20449;-57
2023/10/04 03:17:22;;;;;;;8.70;3.83;;;10.10;99.90;;;;;;5027238;28;21150;-58
2023/10/04 03:19:47;;;;;;;8.83;3.80;;;10.00;99.90;;;;;;5029470;28;20192;-58
2023/10/04 03:22:15;;;;;;;14.10;3.50;;;10.00;99.90;;;;;;5024185;28;20259;-58
2023/10/04 03:24:45;;;;;;;10.77;4.03;;;10.10;99.90;;;;;;5023186;28;20188;-58
2023/10/04 03:27:21;;;;;;;15.37;4.20;;;10.00;99.90;;;;;;5016960;28;21173;-59
2023/10/04 03:29:48;;;;;;;14.73;4.80;;;10.00;99.90;;;;;;5023961;28;20461;-58
2023/10/04 03:32:14;;;;;;;7.47;4.10;;;10.00;99.90;;;;;;5027725;28;20800;-58
2023/10/04 03:34:40;;;;;;;5.33;3.80;;;10.00;99.90;;;;;;5026142;28;20427;-58
2023/10/04 03:37:09;;;;;;;5.73;4.00;;;9.90;99.90;;;;;;5030582;28;21000;-59
2023/10/04 03:39:37;;;;;;;7.20;4.10;;;9.90;99.90;;;;;;5028655;28;20533;-59
2023/10/04 03:42:04;;;;;;;31.43;5.63;;;9.90;99.90;;;;;;5028006;28;20429;-57
2023/10/04 03:44:29;;;;;;;11.13;3.50;;;9.90;99.90;;;;;;5024475;28;20427;-58
2023/10/04 03:46:56;;;;;;;14.33;3.37;;;9.90;99.90;;;;;;5027287;28;20434;-58
2023/10/04 03:49:22;;;;;;;49.70;5.27;;;9.80;99.90;;;;;;5023280;28;20195;-57
2023/10/04 03:51:52;;;;;;;11.47;3.70;;;9.80;99.90;;;;;;5023514;28;20838;-59
2023/10/04 03:54:19;;;;;;;13.03;3.60;;;9.70;99.90;;;;;;5011265;28;20963;-58
2023/10/04 03:56:44;;;;;;;7.33;4.33;;;9.70;99.90;;;;;;5016765;28;20469;-57
2023/10/04 03:59:11;;;;;;;6.13;4.20;;;9.70;99.90;;;;;;5016561;28;20451;-58
2023/10/04 04:01:39;;;;;;;15.23;6.07;;;9.70;99.90;;;;;;5021096;28;20180;-58
2023/10/04 04:04:14;;;;;;;34.40;5.73;;;9.70;99.90;;;;;;5014617;28;20435;-57
2023/10/04 04:06:39;;;;;;;16.33;4.63;;;9.70;99.90;;;;;;5015853;28;20808;-56
2023/10/04 04:09:08;;;;;;;28.80;5.10;;;9.70;99.90;;;;;;5022589;28;20446;-55
2023/10/04 04:11:35;;;;;;;6.23;2.87;;;9.70;99.90;;;;;;5018801;28;20188;-55
2023/10/04 04:14:00;;;;;;;3.33;2.50;;;9.70;99.90;;;;;;5023593;28;21189;-56
2023/10/04 04:16:26;;;;;;;3.07;2.30;;;9.70;99.90;;;;;;5011781;28;20538;-57
2023/10/04 04:18:54;;;;;;;10.37;3.10;;;9.70;99.90;;;;;;5016144;28;20195;-57
2023/10/04 04:21:21;;;;;;;12.50;3.63;;;9.60;99.90;;;;;;5016636;28;20172;-56
2023/10/04 04:23:47;;;;;;;9.00;3.50;;;9.60;99.90;;;;;;5014849;28;20444;-58
2023/10/04 04:26:13;;;;;;;6.77;3.90;;;9.60;99.90;;;;;;5015766;28;20433;-59
2023/10/04 04:28:39;;;;;;;7.43;3.83;;;9.60;99.90;;;;;;5031279;28;20446;-58
2023/10/04 04:31:14;;;;;;;19.53;3.83;;;9.60;99.90;;;;;;5016248;28;20420;-59
2023/10/04 04:33:41;;;;;;;4.70;2.93;;;9.60;99.90;;;;;;5021896;28;20171;-58
2023/10/04 04:36:16;;;;;;;3.80;2.50;;;9.60;99.90;;;;;;5022374;28;20596;-59
2023/10/04 04:38:42;;;;;;;12.00;3.20;;;9.60;99.90;;;;;;5015080;28;20458;-59
2023/10/04 04:41:12;;;;;;;8.50;2.83;;;9.60;99.90;;;;;;5013568;28;20427;-58
2023/10/04 04:43:38;;;;;;;4.83;2.37;;;9.50;99.90;;;;;;5014522;28;20255;-59
2023/10/04 04:46:12;;;;;;;21.53;3.27;;;9.50;99.90;;;;;;5013278;28;20829;-59
2023/10/04 04:48:38;;;;;;;70.17;4.83;;;9.40;99.90;;;;;;5028497;28;20488;-60
2023/10/04 04:51:11;;;;;;;68.90;5.10;;;9.40;99.90;;;;;;5025953;28;20430;-60
2023/10/04 04:53:46;;;;;;;14.40;2.73;;;9.30;99.90;;;;;;5018996;28;20497;-59
2023/10/04 04:56:16;;;;;;;8.33;2.70;;;9.20;99.90;;;;;;5022148;28;20453;-60
2023/10/04 04:58:44;;;;;;;25.17;3.13;;;9.20;99.90;;;;;;5022078;28;20517;-59
2023/10/04 05:01:13;;;;;;;5.60;3.30;;;9.10;99.90;;;;;;5017214;28;20434;-59
2023/10/04 05:03:45;;;;;;;5.40;3.30;;;9.10;99.90;;;;;;5025753;28;20496;-59
2023/10/04 05:06:15;;;;;;;17.03;3.87;;;9.10;99.90;;;;;;5026345;28;20505;-59
2023/10/04 05:08:42;;;;;;;9.70;3.50;;;9.10;99.90;;;;;;5020309;28;20840;-59
2023/10/04 05:11:07;;;;;;;33.00;4.80;;;9.10;99.90;;;;;;5026629;28;20793;-59
2023/10/04 05:13:33;;;;;;;143.00;9.60;;;9.10;99.90;;;;;;5026670;28;20434;-59
2023/10/04 05:16:00;;;;;;;105.03;7.77;;;9.10;99.90;;;;;;5025955;28;20199;-60
2023/10/04 05:18:26;;;;;;;100.97;9.93;;;9.00;99.90;;;;;;5026290;28;20199;-58
2023/10/04 05:20:55;;;;;;;78.73;9.10;;;9.00;99.90;;;;;;5023340;28;20457;-60
2023/10/04 05:23:27;;;;;;;39.57;5.73;;;8.90;99.90;;;;;;5023577;28;20426;-59
2023/10/04 05:25:53;;;;;;;81.73;7.63;;;8.80;99.90;;;;;;5026918;28;20430;-60
2023/10/04 05:28:20;;;;;;;9.27;4.80;;;8.80;99.90;;;;;;5025465;28;20507;-60
2023/10/04 05:30:46;;;;;;;26.67;5.27;;;8.80;99.90;;;;;;5023530;28;20451;-58
2023/10/04 05:33:13;;;;;;;11.70;4.50;;;8.80;99.90;;;;;;5027983;28;20418;-59
2023/10/04 05:35:40;;;;;;;19.50;5.77;;;8.80;99.90;;;;;;5031595;28;20446;-59
2023/10/04 05:38:07;;;;;;;6.60;4.37;;;8.80;99.90;;;;;;5029762;28;20491;-59
2023/10/04 05:40:35;;;;;;;16.73;5.03;;;8.80;99.90;;;;;;5017720;28;20415;-59
2023/10/04 05:43:03;;;;;;;20.83;6.10;;;8.80;99.90;;;;;;5029462;28;20430;-60
2023/10/04 05:45:29;;;;;;;10.93;5.03;;;8.90;99.90;;;;;;5026060;28;20422;-59
2023/10/04 05:47:55;;;;;;;9.87;5.03;;;8.90;99.90;;;;;;5024456;28;20418;-60
2023/10/04 05:50:21;;;;;;;6.97;5.40;;;8.90;99.90;;;;;;5027856;28;20410;-59
2023/10/04 05:52:48;;;;;;;9.37;6.03;;;8.90;99.90;;;;;;5027103;28;20433;-59
2023/10/04 05:55:16;;;;;;;12.53;7.43;;;9.00;99.90;;;;;;5030844;28;20714;-60
2023/10/04 05:57:46;;;;;;;39.70;9.57;;;8.90;99.90;;;;;;5025538;28;20461;-60
2023/10/04 06:00:28;;;;;;;30.33;11.77;;;8.90;99.90;;;;;;5026726;28;20480;-59
2023/10/04 06:02:54;;;;;;;27.67;11.13;;;8.90;99.90;;;;;;5021821;28;20438;-60
2023/10/04 06:05:23;;;;;;;32.83;12.03;;;8.90;99.90;;;;;;5030027;28;20958;-59
2023/10/04 06:07:56;;;;;;;50.70;12.83;;;8.90;99.90;;;;;;5031831;28;20171;-59
2023/10/04 06:10:24;;;;;;;25.13;12.77;;;8.90;99.90;;;;;;5031104;28;20457;-58
2023/10/04 06:12:54;;;;;;;13.20;7.17;;;8.90;99.90;;;;;;5025745;28;20806;-59
2023/10/04 06:15:20;;;;;;;18.97;6.03;;;8.90;99.90;;;;;;5033120;28;20426;-59
2023/10/04 06:17:47;;;;;;;37.20;7.70;;;8.90;99.90;;;;;;5030321;28;20419;-59
2023/10/04 06:22:53;;;;;;;11.20;7.00;;;8.80;99.90;;;;;;5026679;28;20533;-60
2023/10/04 06:25:21;;;;;;;23.00;5.73;;;8.80;99.90;;;;;;5031080;28;20418;-59
2023/10/04 06:27:51;;;;;;;12.13;5.70;;;8.80;99.90;;;;;;5031194;28;20469;-59
2023/10/04 06:30:21;;;;;;;35.90;6.23;;;8.80;99.90;;;;;;5021963;28;20877;-60
2023/10/04 06:32:48;;;;;;;21.07;6.60;;;8.80;99.90;;;;;;5029197;28;20422;-59
2023/10/04 06:35:14;;;;;;;56.37;7.10;;;8.80;99.90;;;;;;5025179;28;20439;-60
2023/10/04 06:37:39;;;;;;;11.67;4.67;;;8.80;99.90;;;;;;5027074;28;20984;-60
2023/10/04 06:40:14;;;;;;;14.53;5.87;;;8.90;99.90;;;;;;5025893;28;20179;-59
2023/10/04 06:42:40;;;;;;;21.93;5.90;;;8.90;99.90;;;;;;5023342;28;20167;-58
2023/10/04 06:45:07;;;;;;;100.53;11.33;;;8.90;99.90;;;;;;5028151;28;20406;-59
2023/10/04 06:47:34;;;;;;;112.93;7.60;;;8.90;99.90;;;;;;5028663;28;20435;-59
2023/10/04 06:50:00;;;;;;;20.97;6.03;;;8.80;99.90;;;;;;5027685;28;20446;-59
2023/10/04 06:52:26;;;;;;;98.17;9.60;;;8.80;99.90;;;;;;5027690;28;20427;-59
2023/10/04 06:54:52;;;;;;;15.57;6.10;;;8.80;99.90;;;;;;5018142;28;20427;-59
2023/10/04 06:57:18;;;;;;;24.53;6.87;;;8.80;99.90;;;;;;5026766;28;20258;-59
2023/10/04 06:59:44;;;;;;;15.13;6.80;;;8.80;99.90;;;;;;5024854;28;20271;-59
2023/10/04 07:02:10;;;;;;;38.40;10.43;;;8.90;99.90;;;;;;5030897;28;20210;-60
2023/10/04 07:04:36;;;;;;;73.83;12.57;;;8.90;99.90;;;;;;5025967;28;20957;-59
2023/10/04 07:07:01;;;;;;;33.63;10.33;;;8.90;99.90;;;;;;5020075;28;20445;-59
2023/10/04 07:09:30;;;;;;;24.40;8.87;;;8.90;99.90;;;;;;5029347;28;20207;-59
2023/10/04 07:11:55;;;;;;;62.33;11.70;;;8.90;99.90;;;;;;5017685;28;20230;-59
2023/10/04 07:14:21;;;;;;;32.70;10.03;;;8.90;99.90;;;;;;5024080;28;21020;-59
2023/10/04 07:16:47;;;;;;;24.80;9.63;;;8.90;99.90;;;;;;5024510;28;20674;-58
2023/10/04 07:19:14;;;;;;;112.93;14.07;;;8.90;99.90;;;;;;5028329;28;20192;-58
2023/10/04 07:21:40;;;;;;;31.83;10.70;;;8.90;99.90;;;;;;5015451;28;20163;-59
2023/10/04 07:24:06;;;;;;;48.40;10.20;;;8.90;99.90;;;;;;5024770;28;20450;-59
2023/10/04 07:26:35;;;;;;;26.47;11.30;;;8.90;99.90;;;;;;5030033;28;20176;-59
2023/10/04 07:29:01;;;;;;;26.30;9.83;;;8.90;99.90;;;;;;5028342;28;20443;-60
2023/10/04 07:31:27;;;;;;;24.90;10.07;;;9.00;99.90;;;;;;5020083;28;20484;-60
2023/10/04 07:33:52;;;;;;;19.57;9.33;;;9.10;99.90;;;;;;5024569;28;20194;-60
2023/10/04 07:36:19;;;;;;;17.40;9.10;;;9.10;99.90;;;;;;5029941;28;20203;-59
2023/10/04 07:38:46;;;;;;;22.03;10.03;;;9.20;99.90;;;;;;5027865;28;20195;-60
2023/10/04 07:41:11;;;;;;;29.33;10.83;;;9.20;99.90;;;;;;5025068;28;20427;-59
2023/10/04 07:43:37;;;;;;;20.77;9.40;;;9.30;99.90;;;;;;5026827;28;20444;-60
2023/10/04 07:46:04;;;;;;;17.17;8.43;;;9.40;99.90;;;;;;5025049;28;20180;-60
2023/10/04 07:48:29;;;;;;;21.40;8.50;;;9.40;99.90;;;;;;5028433;28;20207;-60
2023/10/04 07:50:55;;;;;;;18.23;7.40;;;9.50;99.90;;;;;;5020576;28;20430;-61
2023/10/04 07:53:21;;;;;;;20.37;9.97;;;9.60;99.90;;;;;;5028978;28;20176;-60
2023/10/04 07:55:49;;;;;;;23.60;9.50;;;9.60;99.90;;;;;;5024474;28;20203;-59
2023/10/04 07:58:15;;;;;;;20.00;10.80;;;9.70;99.90;;;;;;5024128;28;20219;-60
2023/10/04 08:00:41;;;;;;;26.70;8.70;;;9.80;99.90;;;;;;5028649;28;20402;-60
2023/10/04 08:03:10;;;;;;;18.50;9.20;;;9.90;99.90;;;;;;5027811;28;20193;-59
2023/10/04 08:05:36;;;;;;;26.23;9.40;;;10.00;99.90;;;;;;5024613;28;20508;-61
2023/10/04 08:08:04;;;;;;;21.87;10.40;;;10.00;99.90;;;;;;5024671;28;20527;-60
2023/10/04 08:10:34;;;;;;;24.63;9.40;;;10.10;99.90;;;;;;5030220;28;20460;-59
2023/10/04 08:13:02;;;;;;;18.90;8.50;;;10.20;99.90;;;;;;5026402;28;20430;-59
2023/10/04 08:15:29;;;;;;;20.00;8.73;;;10.30;99.90;;;;;;5026149;28;20444;-60
2023/10/04 08:17:58;;;;;;;20.40;9.37;;;10.40;99.90;;;;;;5027648;28;20523;-60
2023/10/04 08:20:28;;;;;;;27.00;9.17;;;10.50;99.90;;;;;;5020632;28;20459;-60
2023/10/04 08:22:54;;;;;;;21.37;9.23;;;10.50;99.90;;;;;;5023253;28;20429;-60
2023/10/04 08:25:20;;;;;;;27.27;9.00;;;10.60;99.90;;;;;;5015553;28;20433;-60
2023/10/04 08:27:47;;;;;;;29.60;11.27;;;10.70;99.90;;;;;;5018173;28;20812;-59
2023/10/04 08:30:15;;;;;;;29.83;10.40;;;10.80;99.90;;;;;;5019903;28;20480;-60
2023/10/04 08:32:43;;;;;;;24.00;10.47;;;11.00;99.90;;;;;;5025752;28;20415;-59
2023/10/04 08:35:21;;;;;;;27.13;10.23;;;11.00;99.90;;;;;;5023398;28;20450;-60
2023/10/04 08:37:53;;;;;;;20.73;9.17;;;11.20;99.90;;;;;;5021225;28;20470;-61
2023/10/04 08:40:19;;;;;;;18.40;8.53;;;11.30;99.90;;;;;;5026727;28;20529;-60
2023/10/04 08:42:50;;;;;;;18.10;8.80;;;11.40;99.90;;;;;;5027382;28;20434;-60
2023/10/04 08:45:19;;;;;;;19.50;7.70;;;11.60;99.90;;;;;;5022591;28;20434;-61
2023/10/04 08:47:52;;;;;;;14.93;7.60;;;11.70;99.90;;;;;;5021146;28;20460;-60
2023/10/04 08:50:30;;;;;;;15.03;7.07;;;11.90;99.90;;;;;;5019741;28;20445;-59
2023/10/04 08:53:34;;;;;;;13.80;6.40;;;12.00;99.90;;;;;;5027324;28;20438;-59
2023/10/04 08:56:08;;;;;;;19.77;6.37;;;12.20;99.90;;;;;;5030456;28;20473;-60
2023/10/04 08:58:36;;;;;;;18.20;6.10;;;12.40;99.90;;;;;;5025270;28;20472;-61
2023/10/04 09:01:06;;;;;;;10.00;5.10;;;12.60;99.90;;;;;;5019809;28;20947;-62
2023/10/04 09:03:33;;;;;;;8.07;3.50;;;12.70;99.90;;;;;;5016990;28;20446;-61
2023/10/04 09:05:59;;;;;;;12.17;3.30;;;12.90;99.90;;;;;;5018865;28;20470;-61
2023/10/04 09:08:25;;;;;;;7.90;4.00;;;13.00;99.90;;;;;;5021413;28;20883;-60
2023/10/04 09:10:55;;;;;;;7.97;4.17;;;13.10;99.90;;;;;;5026003;28;20519;-60
2023/10/04 09:13:22;;;;;;;8.73;3.97;;;13.20;99.90;;;;;;5030950;28;21104;-61
2023/10/04 09:15:48;;;;;;;7.37;3.73;;;13.30;99.90;;;;;;5017432;28;20873;-60
2023/10/04 09:18:24;;;;;;;5.30;3.40;;;13.40;99.90;;;;;;5029266;28;20438;-60
2023/10/04 09:20:50;;;;;;;4.37;3.00;;;13.60;99.90;;;;;;5030818;28;20262;-61
2023/10/04 09:23:22;;;;;;;5.70;2.63;;;13.70;99.90;;;;;;5027761;28;20497;-62
2023/10/04 09:25:48;;;;;;;5.23;2.70;;;13.90;99.90;;;;;;5028713;28;20784;-60
2023/10/04 09:28:13;;;;;;;8.30;3.33;;;14.10;99.90;;;;;;5032421;28;20544;-60
2023/10/04 09:30:39;;;;;;;7.13;2.90;;;14.20;99.90;;;;;;5030014;28;20176;-61
2023/10/04 09:33:37;;;;;;;3.40;2.60;;;14.40;98.50;;;;;;5025226;28;20191;-61
2023/10/04 09:36:03;;;;;;;7.93;3.07;;;14.50;97.60;;;;;;5018428;28;20214;-61
2023/10/04 09:38:31;;;;;;;4.77;2.60;;;14.70;95.10;;;;;;5026869;28;20442;-61
2023/10/04 09:40:59;;;;;;;3.60;2.60;;;14.90;90.30;;;;;;5017053;28;20183;-61
2023/10/04 09:43:37;;;;;;;3.27;2.50;;;15.00;87.20;;;;;;5022535;28;20755;-62
2023/10/04 09:46:10;;;;;;;3.93;2.40;;;15.10;89.40;;;;;;5028803;28;20441;-61
2023/10/04 09:48:41;;;;;;;4.03;2.60;;;15.10;89.70;;;;;;5026187;28;20588;-59
2023/10/04 09:51:09;;;;;;;4.43;2.47;;;15.10;87.90;;;;;;5023610;28;20439;-60
2023/10/04 09:53:39;;;;;;;4.63;2.70;;;15.10;91.90;;;;;;5019137;28;20422;-60
2023/10/04 09:56:07;;;;;;;4.23;2.77;;;15.30;91.80;;;;;;5016849;28;20548;-61
2023/10/04 09:58:33;;;;;;;5.63;3.10;;;15.40;76.30;;;;;;5023937;28;20469;-61
2023/10/04 10:01:16;;;;;;;6.80;2.67;;;15.50;76.30;;;;;;5024614;28;20936;-58
2023/10/04 10:03:56;;;;;;;3.83;2.33;;;15.70;72.00;;;;;;5028897;28;20426;-61
2023/10/04 10:06:26;;;;;;;4.70;2.10;;;15.80;68.90;;;;;;5024277;28;20516;-60
2023/10/04 10:08:58;;;;;;;4.50;2.00;;;16.00;69.80;;;;;;5022614;28;20489;-60
2023/10/04 10:11:24;;;;;;;6.33;2.53;;;16.10;68.30;;;;;;5027949;28;20418;-60
2023/10/04 10:13:52;;;;;;;4.33;2.60;;;16.30;67.00;;;;;;5029346;28;20434;-61
2023/10/04 10:16:21;;;;;;;6.00;3.03;;;16.50;67.00;;;;;;5026874;28;20948;-61
2023/10/04 10:18:52;;;;;;;5.20;2.60;;;16.60;67.10;;;;;;5024452;28;20441;-60
2023/10/04 10:21:17;;;;;;;5.47;2.97;;;16.70;64.50;;;;;;5028360;28;20430;-61
2023/10/04 10:23:57;;;;;;;4.83;2.50;;;16.70;65.30;;;;;;5026193;28;20472;-61
2023/10/04 10:26:23;;;;;;;4.57;2.47;;;16.70;64.30;;;;;;5020172;28;20326;-60
2023/10/04 10:29:05;;;;;;;4.97;2.17;;;16.80;66.70;;;;;;5013904;28;21399;-60
2023/10/04 10:31:31;;;;;;;3.90;2.17;;;16.90;67.60;;;;;;5023170;28;20439;-61
2023/10/04 10:33:57;;;;;;;6.13;2.70;;;17.10;63.80;;;;;;5027513;28;20925;-60
2023/10/04 10:36:24;;;;;;;4.13;2.20;;;17.20;63.80;;;;;;5027469;28;20462;-60
2023/10/04 10:38:54;;;;;;;4.03;2.43;;;17.30;62.90;;;;;;5021576;28;20192;-59
2023/10/04 10:41:32;;;;;;;3.13;2.23;;;17.30;61.50;;;;;;5021618;28;20439;-61
2023/10/04 10:44:30;;;;;;;5.77;2.90;;;17.30;60.70;;;;;;5018753;28;20437;-58
2023/10/04 10:47:07;;;;;;;4.60;2.17;;;17.40;58.90;;;;;;5028409;28;20495;-58
2023/10/04 10:49:55;;;;;;;4.70;2.53;;;17.40;58.80;;;;;;5023553;28;20537;-58
2023/10/04 10:52:30;;;;;;;2.60;2.00;;;17.60;59.30;;;;;;5023871;28;20427;-58
2023/10/04 10:54:58;;;;;;;3.93;2.00;;;17.80;60.30;;;;;;5023575;28;20499;-58
2023/10/04 10:57:28;;;;;;;8.07;2.97;;;17.90;59.00;;;;;;5025075;28;21136;-59
2023/10/04 10:59:56;;;;;;;9.57;2.73;;;17.80;58.30;;;;;;5021097;28;20511;-59
2023/10/04 11:02:23;;;;;;;10.23;2.43;;;17.80;58.30;;;;;;5020142;28;20442;-58
2023/10/04 11:04:50;;;;;;;4.40;2.17;;;17.90;59.30;;;;;;5026482;28;20446;-59
2023/10/04 11:07:17;;;;;;;5.20;2.20;;;18.10;58.50;;;;;;5026710;28;20423;-59
2023/10/04 11:09:51;;;;;;;2.60;2.00;;;18.40;57.40;;;;;;5023545;28;20798;-57
2023/10/04 11:12:23;;;;;;;7.93;2.30;;;18.70;57.60;;;;;;5020967;28;20418;-58
2023/10/04 11:14:53;;;;;;;3.60;2.00;;;19.10;55.70;;;;;;5028908;28;20825;-58
2023/10/04 11:17:23;;;;;;;4.80;2.07;;;19.30;52.30;;;;;;5021230;28;20984;-57
2023/10/04 11:19:50;;;;;;;3.77;2.13;;;19.60;52.00;;;;;;5019771;28;20438;-57
2023/10/04 11:22:16;;;;;;;3.37;2.10;;;20.00;51.60;;;;;;5026845;28;20421;-58
2023/10/04 11:24:44;;;;;;;4.07;2.30;;;20.30;50.80;;;;;;5027771;28;20777;-57
2023/10/04 11:27:10;;;;;;;3.77;1.83;;;20.70;51.50;;;;;;5020210;28;20195;-57
2023/10/04 11:29:37;;;;;;;6.90;2.33;;;21.20;51.20;;;;;;5021710;28;20537;-58
2023/10/04 11:32:05;;;;;;;5.30;2.40;;;21.50;51.20;;;;;;5016803;28;20422;-59
2023/10/04 11:34:37;;;;;;;3.13;2.00;;;21.90;50.00;;;;;;5025178;28;20790;-58
2023/10/04 11:37:03;;;;;;;3.77;2.30;;;22.10;49.00;;;;;;5022476;28;20558;-59
2023/10/04 11:39:34;;;;;;;3.90;1.90;;;22.40;49.60;;;;;;5017871;28;20533;-59
2023/10/04 11:42:05;;;;;;;6.77;2.03;;;22.50;48.50;;;;;;5024011;28;20843;-58
2023/10/04 11:44:33;;;;;;;10.30;2.40;;;22.70;49.00;;;;;;5025255;28;20435;-59
2023/10/04 11:47:08;;;;;;;5.17;2.90;;;22.80;47.90;;;;;;5021228;28;20440;-59
2023/10/04 11:49:35;;;;;;;5.70;1.87;;;22.80;47.40;;;;;;5021421;28;20460;-59
2023/10/04 11:52:05;;;;;;;3.43;2.57;;;22.80;47.50;;;;;;5019634;28;20435;-60
2023/10/04 11:54:41;;;;;;;4.37;2.33;;;22.80;47.90;;;;;;5023181;28;20438;-59
2023/10/04 11:57:08;;;;;;;9.90;2.43;;;22.90;47.30;;;;;;5018337;28;20664;-58
2023/10/04 11:59:34;;;;;;;4.20;2.20;;;22.90;47.00;;;;;;5024646;28;20473;-59
2023/10/04 12:02:01;;;;;;;4.10;2.13;;;22.90;47.30;;;;;;5023538;28;20453;-58
2023/10/04 12:04:28;;;;;;;3.53;1.93;;;22.80;47.40;;;;;;5023515;28;20465;-58
2023/10/04 12:07:06;;;;;;;3.20;2.10;;;22.30;46.90;;;;;;5023304;28;20480;-58
2023/10/04 12:09:34;;;;;;;4.30;2.33;;;21.80;48.00;;;;;;5017043;28;20478;-59
2023/10/04 12:12:05;;;;;;;4.10;2.37;;;21.90;48.30;;;;;;5017914;28;20476;-59
2023/10/04 12:14:34;;;;;;;3.87;2.10;;;22.00;48.30;;;;;;5021389;28;20430;-59
2023/10/04 12:17:04;;;;;;;4.60;2.00;;;22.20;47.50;;;;;;5026276;28;20557;-58
2023/10/04 12:19:34;;;;;;;4.47;2.20;;;22.40;47.00;;;;;;5022095;28;20450;-59
2023/10/04 12:22:08;;;;;;;3.83;2.63;;;22.50;46.70;;;;;;5023383;28;20423;-59
2023/10/04 12:24:44;;;;;;;3.83;1.97;;;22.60;46.10;;;;;;5023870;28;20489;-58
2023/10/04 12:27:14;;;;;;;4.53;2.13;;;22.70;46.60;;;;;;5025085;28;20500;-59
2023/10/04 12:29:40;;;;;;;2.60;2.03;;;22.80;46.80;;;;;;5019690;28;20512;-58
2023/10/04 12:32:09;;;;;;;6.10;2.00;;;22.80;46.00;;;;;;5024623;28;20449;-58
2023/10/04 12:34:35;;;;;;;3.30;1.80;;;22.80;45.10;;;;;;5016938;28;20441;-58
2023/10/04 12:37:01;;;;;;;3.43;2.27;;;22.70;45.00;;;;;;5021815;28;20489;-58
2023/10/04 12:39:27;;;;;;;4.17;2.50;;;22.60;44.90;;;;;;5026168;28;21067;-58
2023/10/04 12:41:55;;;;;;;5.17;2.30;;;22.50;44.00;;;;;;5027692;28;20175;-58
2023/10/04 12:44:21;;;;;;;3.47;2.20;;;22.50;43.40;;;;;;5020039;28;20438;-59
2023/10/04 12:46:47;;;;;;;2.90;2.07;;;22.40;43.40;;;;;;5022976;28;20434;-58
2023/10/04 12:49:13;;;;;;;5.10;2.23;;;22.40;43.60;;;;;;5023164;28;20205;-59
2023/10/04 12:51:39;;;;;;;8.43;2.40;;;22.40;44.00;;;;;;5023725;28;20688;-58
2023/10/04 12:54:07;;;;;;;4.13;2.50;;;22.40;44.50;;;;;;5023414;28;20438;-59
2023/10/04 12:56:33;;;;;;;3.43;1.83;;;22.30;43.70;;;;;;5021512;28;20294;-59